sensor_id;sensor_type;location;lat;lon;timestamp;temperature;humidity
65378;SHT31;51982;51.042;13.806;2023-05-16T00:02:24;15.22;87.50
65378;SHT31;51982;51.042;13.806;2023-05-16T00:04:49;15.21;87.50
65378;SHT31;51982;51.042;13.806;2023-05-16T00:07:16;15.18;87.57
65378;SHT31;51982;51.042;13.806;2023-05-16T00:09:44;15.18;87.71
65378;SHT31;51982;51.042;13.806;2023-05-16T00:12:09;15.17;87.66
65378;SHT31;51982;51.042;13.806;2023-05-16T00:14:40;15.12;87.82
65378;SHT31;51982;51.042;13.806;2023-05-16T00:17:08;15.14;87.59
65378;SHT31;51982;51.042;13.806;2023-05-16T00:19:38;15.10;87.61
65378;SHT31;51982;51.042;13.806;2023-05-16T00:22:04;15.11;87.50
65378;SHT31;51982;51.042;13.806;2023-05-16T00:24:33;15.08;87.54
65378;SHT31;51982;51.042;13.806;2023-05-16T00:26:58;15.08;87.16
65378;SHT31;51982;51.042;13.806;2023-05-16T00:29:23;15.07;87.22
65378;SHT31;51982;51.042;13.806;2023-05-16T00:31:49;15.05;87.18
65378;SHT31;51982;51.042;13.806;2023-05-16T00:34:14;15.01;87.27
65378;SHT31;51982;51.042;13.806;2023-05-16T00:36:42;14.97;87.17
65378;SHT31;51982;51.042;13.806;2023-05-16T00:39:07;14.98;87.23
65378;SHT31;51982;51.042;13.806;2023-05-16T00:41:33;14.95;87.26
65378;SHT31;51982;51.042;13.806;2023-05-16T00:43:58;14.93;87.37
65378;SHT31;51982;51.042;13.806;2023-05-16T00:46:23;14.93;87.15
65378;SHT31;51982;51.042;13.806;2023-05-16T00:48:48;14.90;87.27
65378;SHT31;51982;51.042;13.806;2023-05-16T00:51:15;14.85;87.44
65378;SHT31;51982;51.042;13.806;2023-05-16T00:53:41;14.88;87.41
65378;SHT31;51982;51.042;13.806;2023-05-16T00:56:06;14.88;87.40
65378;SHT31;51982;51.042;13.806;2023-05-16T00:58:32;14.87;87.38
65378;SHT31;51982;51.042;13.806;2023-05-16T01:00:58;14.88;87.37
65378;SHT31;51982;51.042;13.806;2023-05-16T01:03:23;14.88;87.22
65378;SHT31;51982;51.042;13.806;2023-05-16T01:05:48;14.84;87.24
65378;SHT31;51982;51.042;13.806;2023-05-16T01:08:14;14.83;87.17
65378;SHT31;51982;51.042;13.806;2023-05-16T01:10:49;14.81;87.14
65378;SHT31;51982;51.042;13.806;2023-05-16T01:13:28;14.81;87.25
65378;SHT31;51982;51.042;13.806;2023-05-16T01:18:29;14.74;87.20
65378;SHT31;51982;51.042;13.806;2023-05-16T01:21:04;14.70;87.15
65378;SHT31;51982;51.042;13.806;2023-05-16T01:23:51;14.67;87.08
65378;SHT31;51982;51.042;13.806;2023-05-16T01:26:22;14.67;87.24
65378;SHT31;51982;51.042;13.806;2023-05-16T01:28:51;14.66;87.13
65378;SHT31;51982;51.042;13.806;2023-05-16T01:31:17;14.66;87.21
65378;SHT31;51982;51.042;13.806;2023-05-16T01:33:42;14.64;87.18
65378;SHT31;51982;51.042;13.806;2023-05-16T01:36:24;14.64;87.16
65378;SHT31;51982;51.042;13.806;2023-05-16T01:41:54;14.59;86.26
65378;SHT31;51982;51.042;13.806;2023-05-16T01:44:44;14.56;86.80
65378;SHT31;51982;51.042;13.806;2023-05-16T01:47:12;14.57;86.74
65378;SHT31;51982;51.042;13.806;2023-05-16T01:49:42;14.53;86.86
65378;SHT31;51982;51.042;13.806;2023-05-16T01:52:19;14.49;86.81
65378;SHT31;51982;51.042;13.806;2023-05-16T01:54:47;14.52;86.83
65378;SHT31;51982;51.042;13.806;2023-05-16T01:57:16;14.49;86.96
65378;SHT31;51982;51.042;13.806;2023-05-16T01:59:43;14.47;86.90
65378;SHT31;51982;51.042;13.806;2023-05-16T02:02:09;14.46;86.96
65378;SHT31;51982;51.042;13.806;2023-05-16T02:04:34;14.43;86.96
65378;SHT31;51982;51.042;13.806;2023-05-16T02:07:00;14.43;86.87
65378;SHT31;51982;51.042;13.806;2023-05-16T02:09:26;14.44;86.89
65378;SHT31;51982;51.042;13.806;2023-05-16T02:11:51;14.44;86.94
65378;SHT31;51982;51.042;13.806;2023-05-16T02:14:16;14.46;86.84
65378;SHT31;51982;51.042;13.806;2023-05-16T02:16:42;14.39;86.55
65378;SHT31;51982;51.042;13.806;2023-05-16T02:19:07;14.40;86.87
65378;SHT31;51982;51.042;13.806;2023-05-16T02:21:33;14.40;86.95
65378;SHT31;51982;51.042;13.806;2023-05-16T02:23:58;14.34;87.04
65378;SHT31;51982;51.042;13.806;2023-05-16T02:26:23;14.39;87.11
65378;SHT31;51982;51.042;13.806;2023-05-16T02:28:48;14.40;86.95
65378;SHT31;51982;51.042;13.806;2023-05-16T02:31:27;14.32;86.93
65378;SHT31;51982;51.042;13.806;2023-05-16T02:33:53;14.39;86.99
65378;SHT31;51982;51.042;13.806;2023-05-16T02:36:18;14.39;87.09
65378;SHT31;51982;51.042;13.806;2023-05-16T02:38:43;14.36;86.93
65378;SHT31;51982;51.042;13.806;2023-05-16T02:41:09;14.37;87.02
65378;SHT31;51982;51.042;13.806;2023-05-16T02:43:34;14.36;87.09
65378;SHT31;51982;51.042;13.806;2023-05-16T02:45:59;14.39;87.13
65378;SHT31;51982;51.042;13.806;2023-05-16T02:48:25;14.36;87.27
65378;SHT31;51982;51.042;13.806;2023-05-16T02:50:50;14.37;87.35
65378;SHT31;51982;51.042;13.806;2023-05-16T02:53:16;14.34;87.38
65378;SHT31;51982;51.042;13.806;2023-05-16T02:55:41;14.40;87.46
65378;SHT31;51982;51.042;13.806;2023-05-16T02:58:07;14.39;87.31
65378;SHT31;51982;51.042;13.806;2023-05-16T03:00:32;14.37;87.19
65378;SHT31;51982;51.042;13.806;2023-05-16T03:02:57;14.37;87.18
65378;SHT31;51982;51.042;13.806;2023-05-16T03:05:23;14.37;87.22
65378;SHT31;51982;51.042;13.806;2023-05-16T03:07:48;14.34;87.25
65378;SHT31;51982;51.042;13.806;2023-05-16T03:10:14;14.37;87.16
65378;SHT31;51982;51.042;13.806;2023-05-16T03:12:40;14.40;87.18
65378;SHT31;51982;51.042;13.806;2023-05-16T03:15:05;14.42;87.17
65378;SHT31;51982;51.042;13.806;2023-05-16T03:17:39;14.43;87.35
65378;SHT31;51982;51.042;13.806;2023-05-16T03:20:07;14.44;87.23
65378;SHT31;51982;51.042;13.806;2023-05-16T03:22:33;14.46;87.63
65378;SHT31;51982;51.042;13.806;2023-05-16T03:24:58;14.52;87.55
65378;SHT31;51982;51.042;13.806;2023-05-16T03:27:25;14.47;87.55
65378;SHT31;51982;51.042;13.806;2023-05-16T03:29:51;14.47;87.82
65378;SHT31;51982;51.042;13.806;2023-05-16T03:32:16;14.55;87.35
65378;SHT31;51982;51.042;13.806;2023-05-16T03:34:41;14.56;87.42
65378;SHT31;51982;51.042;13.806;2023-05-16T03:37:06;14.60;87.55
65378;SHT31;51982;51.042;13.806;2023-05-16T03:39:32;14.55;87.40
65378;SHT31;51982;51.042;13.806;2023-05-16T03:41:57;14.57;87.52
65378;SHT31;51982;51.042;13.806;2023-05-16T03:44:22;14.55;87.25
65378;SHT31;51982;51.042;13.806;2023-05-16T03:46:48;14.64;87.50
65378;SHT31;51982;51.042;13.806;2023-05-16T03:49:15;14.60;86.56
65378;SHT31;51982;51.042;13.806;2023-05-16T03:51:40;14.64;86.62
65378;SHT31;51982;51.042;13.806;2023-05-16T03:54:05;14.71;86.88
65378;SHT31;51982;51.042;13.806;2023-05-16T03:56:31;14.73;87.18
65378;SHT31;51982;51.042;13.806;2023-05-16T03:58:56;14.73;86.81
65378;SHT31;51982;51.042;13.806;2023-05-16T04:01:22;14.76;87.22
65378;SHT31;51982;51.042;13.806;2023-05-16T04:03:47;14.80;87.18
65378;SHT31;51982;51.042;13.806;2023-05-16T04:06:12;14.81;86.92
65378;SHT31;51982;51.042;13.806;2023-05-16T04:08:38;14.87;87.06
65378;SHT31;51982;51.042;13.806;2023-05-16T04:11:04;14.88;87.19
65378;SHT31;51982;51.042;13.806;2023-05-16T04:13:29;14.91;87.28
65378;SHT31;51982;51.042;13.806;2023-05-16T04:15:55;14.97;87.15
65378;SHT31;51982;51.042;13.806;2023-05-16T04:18:20;14.98;87.36
65378;SHT31;51982;51.042;13.806;2023-05-16T04:20:45;15.00;87.19
65378;SHT31;51982;51.042;13.806;2023-05-16T04:23:11;15.04;87.11
65378;SHT31;51982;51.042;13.806;2023-05-16T04:25:37;15.07;87.09
65378;SHT31;51982;51.042;13.806;2023-05-16T04:28:02;15.05;87.26
65378;SHT31;51982;51.042;13.806;2023-05-16T04:30:27;15.04;86.81
65378;SHT31;51982;51.042;13.806;2023-05-16T04:32:52;15.04;86.77
65378;SHT31;51982;51.042;13.806;2023-05-16T04:35:18;15.07;86.95
65378;SHT31;51982;51.042;13.806;2023-05-16T04:37:43;15.08;87.02
65378;SHT31;51982;51.042;13.806;2023-05-16T04:40:09;15.05;87.33
65378;SHT31;51982;51.042;13.806;2023-05-16T04:42:34;15.05;87.46
65378;SHT31;51982;51.042;13.806;2023-05-16T04:44:59;15.05;87.24
65378;SHT31;51982;51.042;13.806;2023-05-16T04:47:25;15.03;86.48
65378;SHT31;51982;51.042;13.806;2023-05-16T04:49:50;15.03;86.26
65378;SHT31;51982;51.042;13.806;2023-05-16T04:52:15;15.01;86.05
65378;SHT31;51982;51.042;13.806;2023-05-16T04:54:40;15.01;85.90
65378;SHT31;51982;51.042;13.806;2023-05-16T04:57:05;15.01;85.98
65378;SHT31;51982;51.042;13.806;2023-05-16T04:59:31;14.97;85.46
65378;SHT31;51982;51.042;13.806;2023-05-16T05:01:56;14.94;84.99
65378;SHT31;51982;51.042;13.806;2023-05-16T05:04:21;14.94;84.95
65378;SHT31;51982;51.042;13.806;2023-05-16T05:06:47;14.90;84.53
65378;SHT31;51982;51.042;13.806;2023-05-16T05:09:12;14.85;84.79
65378;SHT31;51982;51.042;13.806;2023-05-16T05:11:37;14.88;85.09
65378;SHT31;51982;51.042;13.806;2023-05-16T05:14:03;14.94;84.90
65378;SHT31;51982;51.042;13.806;2023-05-16T05:16:28;14.93;84.54
65378;SHT31;51982;51.042;13.806;2023-05-16T05:18:53;14.91;84.52
65378;SHT31;51982;51.042;13.806;2023-05-16T05:21:18;14.91;84.49
65378;SHT31;51982;51.042;13.806;2023-05-16T05:23:44;14.90;84.25
65378;SHT31;51982;51.042;13.806;2023-05-16T05:26:10;14.88;83.75
65378;SHT31;51982;51.042;13.806;2023-05-16T05:28:35;14.90;83.83
65378;SHT31;51982;51.042;13.806;2023-05-16T05:31:02;14.87;83.88
65378;SHT31;51982;51.042;13.806;2023-05-16T05:33:29;14.83;83.65
65378;SHT31;51982;51.042;13.806;2023-05-16T05:35:55;14.74;83.50
65378;SHT31;51982;51.042;13.806;2023-05-16T05:38:20;14.69;83.58
65378;SHT31;51982;51.042;13.806;2023-05-16T05:40:45;14.53;83.30
65378;SHT31;51982;51.042;13.806;2023-05-16T05:43:10;14.59;83.68
65378;SHT31;51982;51.042;13.806;2023-05-16T05:45:36;14.61;83.79
65378;SHT31;51982;51.042;13.806;2023-05-16T05:48:02;14.69;83.76
65378;SHT31;51982;51.042;13.806;2023-05-16T05:50:27;14.64;83.41
65378;SHT31;51982;51.042;13.806;2023-05-16T05:52:53;14.66;83.67
65378;SHT31;51982;51.042;13.806;2023-05-16T05:55:19;14.66;83.50
65378;SHT31;51982;51.042;13.806;2023-05-16T05:57:44;14.60;82.96
65378;SHT31;51982;51.042;13.806;2023-05-16T06:00:10;14.55;83.23
65378;SHT31;51982;51.042;13.806;2023-05-16T06:02:35;14.52;82.94
65378;SHT31;51982;51.042;13.806;2023-05-16T06:05:01;14.39;82.97
65378;SHT31;51982;51.042;13.806;2023-05-16T06:07:26;14.44;83.42
65378;SHT31;51982;51.042;13.806;2023-05-16T06:09:51;14.49;83.03
65378;SHT31;51982;51.042;13.806;2023-05-16T06:12:16;14.43;82.68
65378;SHT31;51982;51.042;13.806;2023-05-16T06:14:42;14.33;82.67
65378;SHT31;51982;51.042;13.806;2023-05-16T06:17:07;14.33;82.88
65378;SHT31;51982;51.042;13.806;2023-05-16T06:19:32;14.26;82.85
65378;SHT31;51982;51.042;13.806;2023-05-16T06:21:57;14.19;82.76
65378;SHT31;51982;51.042;13.806;2023-05-16T06:24:22;14.25;83.06
65378;SHT31;51982;51.042;13.806;2023-05-16T06:26:48;14.23;82.89
65378;SHT31;51982;51.042;13.806;2023-05-16T06:29:14;14.20;83.04
65378;SHT31;51982;51.042;13.806;2023-05-16T06:31:39;14.22;83.08
65378;SHT31;51982;51.042;13.806;2023-05-16T06:34:08;14.28;83.21
65378;SHT31;51982;51.042;13.806;2023-05-16T06:36:33;14.30;82.70
65378;SHT31;51982;51.042;13.806;2023-05-16T06:38:58;14.37;82.80
65378;SHT31;51982;51.042;13.806;2023-05-16T06:41:24;14.49;82.38
65378;SHT31;51982;51.042;13.806;2023-05-16T06:43:50;14.44;81.62
65378;SHT31;51982;51.042;13.806;2023-05-16T06:46:15;14.47;81.99
65378;SHT31;51982;51.042;13.806;2023-05-16T06:48:40;14.56;82.01
65378;SHT31;51982;51.042;13.806;2023-05-16T06:51:06;14.55;81.70
65378;SHT31;51982;51.042;13.806;2023-05-16T06:53:31;14.49;81.54
65378;SHT31;51982;51.042;13.806;2023-05-16T06:55:56;14.44;81.57
65378;SHT31;51982;51.042;13.806;2023-05-16T06:58:21;14.44;81.61
65378;SHT31;51982;51.042;13.806;2023-05-16T07:00:48;14.34;81.57
65378;SHT31;51982;51.042;13.806;2023-05-16T07:03:13;14.25;81.51
65378;SHT31;51982;51.042;13.806;2023-05-16T07:05:39;14.30;81.88
65378;SHT31;51982;51.042;13.806;2023-05-16T07:08:04;14.39;81.93
65378;SHT31;51982;51.042;13.806;2023-05-16T07:10:29;14.42;81.55
65378;SHT31;51982;51.042;13.806;2023-05-16T07:12:55;14.40;81.44
65378;SHT31;51982;51.042;13.806;2023-05-16T07:15:20;14.20;80.85
65378;SHT31;51982;51.042;13.806;2023-05-16T07:17:45;14.20;81.33
65378;SHT31;51982;51.042;13.806;2023-05-16T07:20:11;14.28;81.69
65378;SHT31;51982;51.042;13.806;2023-05-16T07:22:39;14.30;81.44
65378;SHT31;51982;51.042;13.806;2023-05-16T07:25:05;14.29;81.31
65378;SHT31;51982;51.042;13.806;2023-05-16T07:27:30;14.29;81.15
65378;SHT31;51982;51.042;13.806;2023-05-16T07:29:56;14.30;81.27
65378;SHT31;51982;51.042;13.806;2023-05-16T07:32:21;14.33;81.18
65378;SHT31;51982;51.042;13.806;2023-05-16T07:34:46;14.25;81.04
65378;SHT31;51982;51.042;13.806;2023-05-16T07:37:12;14.32;80.99
65378;SHT31;51982;51.042;13.806;2023-05-16T07:39:38;14.28;81.10
65378;SHT31;51982;51.042;13.806;2023-05-16T07:42:05;14.34;81.25
65378;SHT31;51982;51.042;13.806;2023-05-16T07:44:30;14.39;81.24
65378;SHT31;51982;51.042;13.806;2023-05-16T07:46:56;14.40;81.01
65378;SHT31;51982;51.042;13.806;2023-05-16T07:49:21;14.34;80.87
65378;SHT31;51982;51.042;13.806;2023-05-16T07:51:46;14.25;80.85
65378;SHT31;51982;51.042;13.806;2023-05-16T07:54:11;14.26;80.99
65378;SHT31;51982;51.042;13.806;2023-05-16T07:56:37;14.26;81.12
65378;SHT31;51982;51.042;13.806;2023-05-16T07:59:02;14.34;81.33
65378;SHT31;51982;51.042;13.806;2023-05-16T08:01:30;14.37;81.13
65378;SHT31;51982;51.042;13.806;2023-05-16T08:03:55;14.28;81.06
65378;SHT31;51982;51.042;13.806;2023-05-16T08:06:20;14.32;80.72
65378;SHT31;51982;51.042;13.806;2023-05-16T08:08:45;14.29;80.78
65378;SHT31;51982;51.042;13.806;2023-05-16T08:11:10;14.28;80.99
65378;SHT31;51982;51.042;13.806;2023-05-16T08:13:36;14.25;81.15
65378;SHT31;51982;51.042;13.806;2023-05-16T08:16:04;14.30;81.13
65378;SHT31;51982;51.042;13.806;2023-05-16T08:18:29;14.23;80.83
65378;SHT31;51982;51.042;13.806;2023-05-16T08:20:55;14.19;81.03
65378;SHT31;51982;51.042;13.806;2023-05-16T08:23:20;14.15;81.03
65378;SHT31;51982;51.042;13.806;2023-05-16T08:25:45;14.20;81.27
65378;SHT31;51982;51.042;13.806;2023-05-16T08:28:10;14.22;81.43
65378;SHT31;51982;51.042;13.806;2023-05-16T08:30:36;14.26;81.21
65378;SHT31;51982;51.042;13.806;2023-05-16T08:33:01;14.25;81.02
65378;SHT31;51982;51.042;13.806;2023-05-16T08:35:29;14.32;80.99
65378;SHT31;51982;51.042;13.806;2023-05-16T08:37:55;14.22;80.96
65378;SHT31;51982;51.042;13.806;2023-05-16T08:40:21;14.28;81.12
65378;SHT31;51982;51.042;13.806;2023-05-16T08:42:48;14.33;81.17
65378;SHT31;51982;51.042;13.806;2023-05-16T08:45:14;14.29;80.89
65378;SHT31;51982;51.042;13.806;2023-05-16T08:47:40;14.28;80.89
65378;SHT31;51982;51.042;13.806;2023-05-16T08:50:08;14.34;81.00
65378;SHT31;51982;51.042;13.806;2023-05-16T08:52:34;14.34;80.95
65378;SHT31;51982;51.042;13.806;2023-05-16T08:55:02;14.33;80.95
65378;SHT31;51982;51.042;13.806;2023-05-16T08:57:30;14.33;80.78
65378;SHT31;51982;51.042;13.806;2023-05-16T08:59:56;14.36;80.92
65378;SHT31;51982;51.042;13.806;2023-05-16T09:02:22;14.40;80.89
65378;SHT31;51982;51.042;13.806;2023-05-16T09:04:48;14.36;80.64
65378;SHT31;51982;51.042;13.806;2023-05-16T09:07:13;14.30;80.72
65378;SHT31;51982;51.042;13.806;2023-05-16T09:09:41;14.29;80.88
65378;SHT31;51982;51.042;13.806;2023-05-16T09:12:07;14.36;80.73
65378;SHT31;51982;51.042;13.806;2023-05-16T09:14:32;14.30;80.85
65378;SHT31;51982;51.042;13.806;2023-05-16T09:17:05;14.28;80.83
65378;SHT31;51982;51.042;13.806;2023-05-16T09:19:39;14.30;80.87
65378;SHT31;51982;51.042;13.806;2023-05-16T09:22:08;14.36;80.97
65378;SHT31;51982;51.042;13.806;2023-05-16T09:24:37;14.37;80.76
65378;SHT31;51982;51.042;13.806;2023-05-16T09:27:13;14.33;80.57
65378;SHT31;51982;51.042;13.806;2023-05-16T09:29:40;14.37;80.86
65378;SHT31;51982;51.042;13.806;2023-05-16T09:32:13;14.37;80.70
65378;SHT31;51982;51.042;13.806;2023-05-16T09:34:48;14.43;80.66
65378;SHT31;51982;51.042;13.806;2023-05-16T09:37:15;14.43;80.59
65378;SHT31;51982;51.042;13.806;2023-05-16T09:39:45;14.43;80.52
65378;SHT31;51982;51.042;13.806;2023-05-16T09:42:15;14.39;80.61
65378;SHT31;51982;51.042;13.806;2023-05-16T09:44:41;14.47;80.73
65378;SHT31;51982;51.042;13.806;2023-05-16T09:47:09;14.55;80.90
65378;SHT31;51982;51.042;13.806;2023-05-16T09:49:36;14.53;80.74
65378;SHT31;51982;51.042;13.806;2023-05-16T09:52:02;14.59;80.96
65378;SHT31;51982;51.042;13.806;2023-05-16T09:54:29;14.61;80.87
65378;SHT31;51982;51.042;13.806;2023-05-16T09:56:55;14.64;80.66
65378;SHT31;51982;51.042;13.806;2023-05-16T09:59:20;14.59;80.38
65378;SHT31;51982;51.042;13.806;2023-05-16T10:01:46;14.56;80.68
65378;SHT31;51982;51.042;13.806;2023-05-16T10:04:12;14.52;80.42
65378;SHT31;51982;51.042;13.806;2023-05-16T10:06:40;14.39;80.36
65378;SHT31;51982;51.042;13.806;2023-05-16T10:09:09;14.44;80.80
65378;SHT31;51982;51.042;13.806;2023-05-16T10:11:35;14.46;80.79
65378;SHT31;51982;51.042;13.806;2023-05-16T10:14:01;14.46;80.63
65378;SHT31;51982;51.042;13.806;2023-05-16T10:16:28;14.42;80.59
65378;SHT31;51982;51.042;13.806;2023-05-16T10:18:54;14.50;80.68
65378;SHT31;51982;51.042;13.806;2023-05-16T10:21:21;14.55;80.60
65378;SHT31;51982;51.042;13.806;2023-05-16T10:23:49;14.59;80.56
65378;SHT31;51982;51.042;13.806;2023-05-16T10:26:16;14.69;80.58
65378;SHT31;51982;51.042;13.806;2023-05-16T10:28:41;14.59;80.27
65378;SHT31;51982;51.042;13.806;2023-05-16T10:31:09;14.64;80.48
65378;SHT31;51982;51.042;13.806;2023-05-16T10:33:35;14.63;80.19
65378;SHT31;51982;51.042;13.806;2023-05-16T10:36:00;14.64;79.98
65378;SHT31;51982;51.042;13.806;2023-05-16T10:38:28;14.61;80.12
65378;SHT31;51982;51.042;13.806;2023-05-16T10:40:53;14.61;80.28
65378;SHT31;51982;51.042;13.806;2023-05-16T10:43:27;14.67;80.11
65378;SHT31;51982;51.042;13.806;2023-05-16T10:46:02;14.64;79.90
65378;SHT31;51982;51.042;13.806;2023-05-16T10:48:32;14.66;80.04
65378;SHT31;51982;51.042;13.806;2023-05-16T10:50:57;14.69;80.00
65378;SHT31;51982;51.042;13.806;2023-05-16T10:53:32;14.67;79.80
65378;SHT31;51982;51.042;13.806;2023-05-16T10:58:45;14.67;79.11
65378;SHT31;51982;51.042;13.806;2023-05-16T11:01:15;14.59;79.64
65378;SHT31;51982;51.042;13.806;2023-05-16T11:06:21;14.63;79.59
65378;SHT31;51982;51.042;13.806;2023-05-16T11:11:41;14.70;79.49
65378;SHT31;51982;51.042;13.806;2023-05-16T11:14:07;14.70;79.14
65378;SHT31;51982;51.042;13.806;2023-05-16T11:16:34;14.84;79.47
65378;SHT31;51982;51.042;13.806;2023-05-16T11:19:04;14.95;79.54
65378;SHT31;51982;51.042;13.806;2023-05-16T11:24:33;15.11;78.71
65378;SHT31;51982;51.042;13.806;2023-05-16T11:26:59;15.15;78.83
65378;SHT31;51982;51.042;13.806;2023-05-16T11:29:27;15.21;78.71
65378;SHT31;51982;51.042;13.806;2023-05-16T11:31:52;15.27;78.54
65378;SHT31;51982;51.042;13.806;2023-05-16T11:34:18;15.25;78.48
65378;SHT31;51982;51.042;13.806;2023-05-16T11:36:43;15.30;78.92
65378;SHT31;51982;51.042;13.806;2023-05-16T11:39:08;15.30;78.57
65378;SHT31;51982;51.042;13.806;2023-05-16T11:41:34;15.15;77.82
65378;SHT31;51982;51.042;13.806;2023-05-16T11:43:59;15.07;77.91
65378;SHT31;51982;51.042;13.806;2023-05-16T11:46:25;15.12;77.72
65378;SHT31;51982;51.042;13.806;2023-05-16T11:48:51;15.21;77.85
65378;SHT31;51982;51.042;13.806;2023-05-16T11:51:17;15.25;77.47
65378;SHT31;51982;51.042;13.806;2023-05-16T11:53:44;15.34;77.66
65378;SHT31;51982;51.042;13.806;2023-05-16T11:56:11;15.44;77.37
65378;SHT31;51982;51.042;13.806;2023-05-16T11:58:36;15.59;77.29
65378;SHT31;51982;51.042;13.806;2023-05-16T12:01:03;15.73;77.25
65378;SHT31;51982;51.042;13.806;2023-05-16T12:03:29;15.75;76.65
65378;SHT31;51982;51.042;13.806;2023-05-16T12:05:57;15.78;76.99
65378;SHT31;51982;51.042;13.806;2023-05-16T12:08:23;15.70;76.47
65378;SHT31;51982;51.042;13.806;2023-05-16T12:10:52;15.76;76.84
65378;SHT31;51982;51.042;13.806;2023-05-16T12:13:19;15.75;76.46
65378;SHT31;51982;51.042;13.806;2023-05-16T12:15:45;15.69;76.47
65378;SHT31;51982;51.042;13.806;2023-05-16T12:18:11;15.76;76.60
65378;SHT31;51982;51.042;13.806;2023-05-16T12:20:36;15.73;76.20
65378;SHT31;51982;51.042;13.806;2023-05-16T12:23:02;15.82;76.43
65378;SHT31;51982;51.042;13.806;2023-05-16T12:25:32;15.75;76.18
65378;SHT31;51982;51.042;13.806;2023-05-16T12:27:59;15.70;76.23
65378;SHT31;51982;51.042;13.806;2023-05-16T12:30:26;15.73;76.62
65378;SHT31;51982;51.042;13.806;2023-05-16T12:32:57;15.75;76.25
65378;SHT31;51982;51.042;13.806;2023-05-16T12:35:24;15.81;76.04
65378;SHT31;51982;51.042;13.806;2023-05-16T12:37:49;15.87;75.72
65378;SHT31;51982;51.042;13.806;2023-05-16T12:40:16;15.89;76.07
65378;SHT31;51982;51.042;13.806;2023-05-16T12:42:44;15.92;76.00
65378;SHT31;51982;51.042;13.806;2023-05-16T12:45:13;15.87;75.87
65378;SHT31;51982;51.042;13.806;2023-05-16T12:47:40;15.96;76.09
65378;SHT31;51982;51.042;13.806;2023-05-16T12:50:09;15.93;76.14
65378;SHT31;51982;51.042;13.806;2023-05-16T12:52:36;15.97;76.34
65378;SHT31;51982;51.042;13.806;2023-05-16T12:55:01;15.95;76.12
65378;SHT31;51982;51.042;13.806;2023-05-16T12:57:27;15.96;76.08
65378;SHT31;51982;51.042;13.806;2023-05-16T12:59:52;15.78;75.72
65378;SHT31;51982;51.042;13.806;2023-05-16T13:02:18;15.81;75.93
65378;SHT31;51982;51.042;13.806;2023-05-16T13:04:43;15.83;75.97
65378;SHT31;51982;51.042;13.806;2023-05-16T13:07:08;15.83;75.86
65378;SHT31;51982;51.042;13.806;2023-05-16T13:09:33;15.86;75.81
65378;SHT31;51982;51.042;13.806;2023-05-16T13:11:59;15.87;76.06
65378;SHT31;51982;51.042;13.806;2023-05-16T13:14:24;15.92;76.14
65378;SHT31;51982;51.042;13.806;2023-05-16T13:16:49;15.93;76.02
65378;SHT31;51982;51.042;13.806;2023-05-16T13:19:15;15.95;76.09
65378;SHT31;51982;51.042;13.806;2023-05-16T13:21:40;15.73;75.92
65378;SHT31;51982;51.042;13.806;2023-05-16T13:24:05;15.73;75.86
65378;SHT31;51982;51.042;13.806;2023-05-16T13:26:31;15.72;76.09
65378;SHT31;51982;51.042;13.806;2023-05-16T13:28:56;15.67;76.01
65378;SHT31;51982;51.042;13.806;2023-05-16T13:31:21;15.76;76.21
65378;SHT31;51982;51.042;13.806;2023-05-16T13:33:47;15.83;76.24
65378;SHT31;51982;51.042;13.806;2023-05-16T13:36:13;15.83;76.23
65378;SHT31;51982;51.042;13.806;2023-05-16T13:38:38;15.82;76.14
65378;SHT31;51982;51.042;13.806;2023-05-16T13:41:03;15.83;76.30
65378;SHT31;51982;51.042;13.806;2023-05-16T13:43:28;15.87;76.25
65378;SHT31;51982;51.042;13.806;2023-05-16T13:45:53;15.90;76.38
65378;SHT31;51982;51.042;13.806;2023-05-16T13:48:19;15.99;76.71
65378;SHT31;51982;51.042;13.806;2023-05-16T13:50:44;16.00;76.03
65378;SHT31;51982;51.042;13.806;2023-05-16T13:53:10;16.02;76.07
65378;SHT31;51982;51.042;13.806;2023-05-16T13:55:36;16.07;75.96
65378;SHT31;51982;51.042;13.806;2023-05-16T13:58:01;16.09;75.69
65378;SHT31;51982;51.042;13.806;2023-05-16T14:00:28;16.00;75.37
65378;SHT31;51982;51.042;13.806;2023-05-16T14:02:53;16.00;75.38
65378;SHT31;51982;51.042;13.806;2023-05-16T14:05:18;15.95;75.30
65378;SHT31;51982;51.042;13.806;2023-05-16T14:07:43;15.82;75.46
65378;SHT31;51982;51.042;13.806;2023-05-16T14:10:09;15.86;75.59
65378;SHT31;51982;51.042;13.806;2023-05-16T14:12:34;15.89;75.70
65378;SHT31;51982;51.042;13.806;2023-05-16T14:15:00;15.89;75.79
65378;SHT31;51982;51.042;13.806;2023-05-16T14:17:25;15.87;75.80
65378;SHT31;51982;51.042;13.806;2023-05-16T14:19:50;15.72;75.62
65378;SHT31;51982;51.042;13.806;2023-05-16T14:22:17;15.73;75.90
65378;SHT31;51982;51.042;13.806;2023-05-16T14:24:43;15.72;75.79
65378;SHT31;51982;51.042;13.806;2023-05-16T14:27:08;15.78;75.93
65378;SHT31;51982;51.042;13.806;2023-05-16T14:29:33;15.72;75.85
65378;SHT31;51982;51.042;13.806;2023-05-16T14:31:58;15.52;75.80
65378;SHT31;51982;51.042;13.806;2023-05-16T14:34:24;15.52;75.90
65378;SHT31;51982;51.042;13.806;2023-05-16T14:36:49;15.45;76.14
65378;SHT31;51982;51.042;13.806;2023-05-16T14:39:14;15.54;76.28
65378;SHT31;51982;51.042;13.806;2023-05-16T14:41:43;15.52;76.38
65378;SHT31;51982;51.042;13.806;2023-05-16T14:44:08;15.56;76.46
65378;SHT31;51982;51.042;13.806;2023-05-16T14:46:33;15.62;76.51
65378;SHT31;51982;51.042;13.806;2023-05-16T14:48:59;15.63;76.53
65378;SHT31;51982;51.042;13.806;2023-05-16T14:51:24;15.62;76.40
65378;SHT31;51982;51.042;13.806;2023-05-16T14:53:49;15.58;76.33
65378;SHT31;51982;51.042;13.806;2023-05-16T14:56:14;15.56;76.16
65378;SHT31;51982;51.042;13.806;2023-05-16T14:58:40;15.55;76.20
65378;SHT31;51982;51.042;13.806;2023-05-16T15:01:05;15.39;75.84
65378;SHT31;51982;51.042;13.806;2023-05-16T15:03:30;15.39;75.86
65378;SHT31;51982;51.042;13.806;2023-05-16T15:05:57;15.30;75.66
65378;SHT31;51982;51.042;13.806;2023-05-16T15:08:22;15.36;75.73
65378;SHT31;51982;51.042;13.806;2023-05-16T15:10:47;15.39;75.82
65378;SHT31;51982;51.042;13.806;2023-05-16T15:13:13;15.48;75.79
65378;SHT31;51982;51.042;13.806;2023-05-16T15:15:38;15.35;75.48
65378;SHT31;51982;51.042;13.806;2023-05-16T15:18:03;15.36;75.49
65378;SHT31;51982;51.042;13.806;2023-05-16T15:20:29;15.38;75.54
65378;SHT31;51982;51.042;13.806;2023-05-16T15:22:54;15.36;75.54
65378;SHT31;51982;51.042;13.806;2023-05-16T15:25:19;15.36;75.49
65378;SHT31;51982;51.042;13.806;2023-05-16T15:27:47;15.32;75.53